Time;durP1;ratioP1;P1;durP2;ratioP2;P2;SDS_P1;SDS_P2;PMS_P1;PMS_P2;Temp;Humidity;BMP_temperature;BMP_pressure;BME280_temperature;BME280_humidity;BME280_pressure;Samples;Min_cycle;Max_cycle;Signal;HPM_P1;HPM_P2
2022/01/31 00:01:27;;;;;;;18.73;3.97;;;3.20;99.90;;;;;;4977371;28;20141;-86
2022/01/31 00:03:53;;;;;;;22.43;5.00;;;3.20;99.90;;;;;;4975450;28;20423;-86
2022/01/31 00:06:18;;;;;;;17.23;4.00;;;3.30;99.90;;;;;;4974740;28;20082;-86
2022/01/31 00:08:44;;;;;;;20.33;4.87;;;4.00;99.90;;;;;;4975018;28;20061;-86
2022/01/31 00:11:11;;;;;;;20.80;5.90;;;3.30;99.90;;;;;;4975321;28;20154;-87
2022/01/31 00:13:41;;;;;;;21.90;4.73;;;3.30;99.90;;;;;;4975254;28;20524;-86
2022/01/31 00:16:09;;;;;;;15.63;4.00;;;3.40;99.90;;;;;;4975117;28;20046;-86
2022/01/31 00:18:35;;;;;;;17.20;4.20;;;3.30;99.90;;;;;;4975322;28;20491;-86
2022/01/31 00:21:01;;;;;;;21.90;4.10;;;3.30;99.90;;;;;;4974846;28;20057;-86
2022/01/31 00:23:27;;;;;;;16.83;4.63;;;3.40;99.90;;;;;;4974444;28;20050;-85
2022/01/31 00:25:52;;;;;;;19.23;4.97;;;3.40;99.90;;;;;;4975096;28;20462;-86
2022/01/31 00:28:18;;;;;;;23.37;4.63;;;3.40;99.90;;;;;;4974337;28;20139;-86
2022/01/31 00:30:45;;;;;;;20.50;4.33;;;3.40;99.90;;;;;;4974694;28;20414;-86
2022/01/31 00:33:10;;;;;;;20.33;4.83;;;3.40;99.90;;;;;;4974915;28;20057;-86
2022/01/31 00:35:36;;;;;;;14.83;4.80;;;3.40;99.90;;;;;;4983827;28;20400;-85
2022/01/31 00:38:02;;;;;;;16.73;4.97;;;3.40;99.90;;;;;;4975999;28;20479;-86
2022/01/31 00:40:27;;;;;;;15.80;4.77;;;3.40;99.90;;;;;;4973688;28;20057;-86
2022/01/31 00:42:53;;;;;;;20.07;4.30;;;3.40;99.90;;;;;;4975106;28;20046;-85
2022/01/31 00:45:27;;;;;;;17.17;4.33;;;3.60;99.90;;;;;;4974846;28;20122;-86
2022/01/31 00:48:05;;;;;;;16.50;4.53;;;3.40;99.90;;;;;;4974572;28;20050;-86
2022/01/31 00:50:39;;;;;;;16.07;4.57;;;3.40;99.90;;;;;;4974723;28;20054;-86
2022/01/31 00:53:05;;;;;;;;;;;3.40;99.90;;;;;;4975613;28;20054;-86
2022/01/31 00:55:30;;;;;;;15.57;4.50;;;3.40;99.90;;;;;;4973686;28;20013;-86
2022/01/31 00:57:57;;;;;;;18.00;4.57;;;3.40;99.90;;;;;;4974646;28;20376;-86
2022/01/31 01:00:23;;;;;;;19.70;4.90;;;3.40;99.90;;;;;;4974468;28;20043;-86
2022/01/31 01:02:48;;;;;;;18.70;4.63;;;3.40;99.90;;;;;;4973733;28;20193;-86
2022/01/31 01:05:15;;;;;;;19.10;5.27;;;3.40;99.90;;;;;;4974817;28;20145;-86
2022/01/31 01:07:45;;;;;;;17.80;5.20;;;3.40;99.90;;;;;;4975484;28;20043;-86
2022/01/31 01:10:13;;;;;;;18.00;4.50;;;3.40;99.90;;;;;;4973745;28;20050;-86
2022/01/31 01:12:39;;;;;;;16.50;5.00;;;3.70;99.90;;;;;;4975668;28;20141;-86
2022/01/31 01:15:05;;;;;;;16.17;5.23;;;3.50;99.90;;;;;;4974167;28;20082;-86
2022/01/31 01:17:31;;;;;;;17.73;4.90;;;3.50;99.90;;;;;;4973225;28;20557;-86
2022/01/31 01:19:56;;;;;;;18.10;4.97;;;3.40;99.90;;;;;;4974123;28;20129;-85
2022/01/31 01:22:22;;;;;;;16.40;5.00;;;3.40;99.90;;;;;;4974222;28;20399;-86
2022/01/31 01:24:48;;;;;;;21.27;5.43;;;3.50;99.90;;;;;;4973012;28;20105;-86
2022/01/31 01:27:18;;;;;;;17.73;5.10;;;3.50;99.90;;;;;;4973737;28;20094;-86
2022/01/31 01:29:45;;;;;;;16.03;5.50;;;3.50;99.90;;;;;;4972821;28;20051;-86
2022/01/31 01:32:11;;;;;;;18.43;5.57;;;3.50;99.90;;;;;;4974037;28;20069;-86
2022/01/31 01:34:36;;;;;;;18.20;5.70;;;3.40;99.90;;;;;;4973130;28;20496;-86
2022/01/31 01:37:03;;;;;;;19.07;5.87;;;3.40;99.90;;;;;;4973086;28;20053;-85
2022/01/31 01:39:29;;;;;;;21.37;6.50;;;3.40;99.90;;;;;;4973044;28;20435;-85
2022/01/31 01:41:55;;;;;;;18.80;6.23;;;3.40;99.90;;;;;;4973244;28;20058;-86
2022/01/31 01:44:39;;;;;;;18.73;6.83;;;3.40;99.90;;;;;;4973109;28;20039;-86
2022/01/31 01:47:05;;;;;;;24.58;7.43;;;3.40;99.90;;;;;;4979158;28;20094;-85
2022/01/31 01:49:30;;;;;;;18.40;6.83;;;3.30;99.90;;;;;;4978868;28;20046;-87
2022/01/31 01:51:56;;;;;;;21.07;8.03;;;3.30;99.90;;;;;;4973423;28;20043;-86
2022/01/31 01:54:21;;;;;;;18.97;8.23;;;3.30;99.90;;;;;;4973577;28;20053;-86
2022/01/31 01:56:47;;;;;;;25.43;9.50;;;3.20;99.90;;;;;;4973021;28;20043;-87
2022/01/31 01:59:13;;;;;;;25.30;9.67;;;3.10;99.90;;;;;;4972569;28;20089;-86
2022/01/31 02:01:44;;;;;;;21.97;8.83;;;3.00;99.90;;;;;;4972869;28;20051;-86
2022/01/31 02:04:10;;;;;;;25.33;10.03;;;2.80;99.90;;;;;;4973463;28;20046;-86
2022/01/31 02:06:47;;;;;;;27.90;10.10;;;2.80;99.90;;;;;;4972389;28;20061;-86
2022/01/31 02:09:13;;;;;;;23.03;9.97;;;2.70;99.90;;;;;;4973599;28;20232;-86
2022/01/31 02:11:57;;;;;;;22.83;9.47;;;2.80;99.90;;;;;;4973276;28;20563;-87
2022/01/31 02:14:39;;;;;;;24.13;10.63;;;2.50;99.90;;;;;;4973181;28;20089;-86
2022/01/31 02:17:04;;;;;;;20.60;9.23;;;2.20;99.90;;;;;;4973340;28;20046;-87
2022/01/31 02:19:30;;;;;;;21.57;11.30;;;2.10;99.90;;;;;;4971937;28;20455;-86
2022/01/31 02:21:56;;;;;;;25.03;11.87;;;2.20;99.90;;;;;;4973304;28;20047;-86
2022/01/31 02:24:22;;;;;;;30.23;11.50;;;3.20;99.90;;;;;;4974441;28;20067;-86
2022/01/31 02:26:48;;;;;;;25.87;11.87;;;2.10;99.90;;;;;;4976942;28;20055;-86
2022/01/31 02:29:14;;;;;;;24.20;11.37;;;2.10;99.90;;;;;;4973233;28;20182;-86
2022/01/31 02:31:45;;;;;;;25.87;11.87;;;2.10;99.90;;;;;;4973069;28;20092;-86
2022/01/31 02:34:12;;;;;;;24.50;11.97;;;2.60;99.90;;;;;;4996306;23;20070;-86
2022/01/31 02:36:39;;;;;;;25.93;12.50;;;2.20;99.90;;;;;;4991567;28;20501;-86
2022/01/31 02:41:30;;;;;;;25.83;11.57;;;2.20;99.90;;;;;;5003678;23;20121;-84
2022/01/31 02:43:56;;;;;;;25.40;11.50;;;2.20;99.90;;;;;;4972523;28;20505;-86
2022/01/31 02:46:25;;;;;;;28.83;11.40;;;2.20;99.90;;;;;;4971362;28;20086;-86
2022/01/31 02:48:54;;;;;;;25.53;11.67;;;2.30;99.90;;;;;;4971881;28;20043;-86
2022/01/31 02:51:25;;;;;;;31.93;11.73;;;2.20;99.90;;;;;;4972643;28;20049;-85
2022/01/31 02:53:51;;;;;;;23.77;11.23;;;2.30;99.90;;;;;;4973049;28;20046;-86
2022/01/31 02:56:17;;;;;;;28.67;12.80;;;2.30;99.90;;;;;;4971857;28;20487;-85
2022/01/31 02:58:43;;;;;;;28.20;12.20;;;2.30;99.90;;;;;;4972440;28;20047;-86
2022/01/31 03:01:08;;;;;;;24.00;11.97;;;2.30;99.90;;;;;;4984916;28;20070;-85
2022/01/31 03:03:34;;;;;;;25.87;11.87;;;2.40;99.90;;;;;;4973747;28;20039;-85
2022/01/31 03:05:59;;;;;;;23.20;11.20;;;2.40;99.90;;;;;;4972579;28;20058;-85
2022/01/31 03:08:25;;;;;;;20.03;10.73;;;2.40;99.90;;;;;;4971887;28;20054;-85
2022/01/31 03:10:52;;;;;;;21.23;10.50;;;2.40;99.90;;;;;;4972314;28;20039;-85
2022/01/31 03:13:18;;;;;;;21.30;9.73;;;2.40;99.90;;;;;;4972551;28;20053;-84
2022/01/31 03:15:43;;;;;;;17.47;9.07;;;2.40;99.90;;;;;;4971498;28;20432;-85
2022/01/31 03:18:09;;;;;;;22.10;9.77;;;2.40;99.90;;;;;;4972347;28;20042;-84
2022/01/31 03:20:35;;;;;;;18.10;9.13;;;2.40;99.90;;;;;;4979932;28;20064;-84
2022/01/31 03:23:01;;;;;;;19.30;9.50;;;2.30;99.90;;;;;;4986250;28;20054;-85
2022/01/31 03:25:27;;;;;;;17.43;9.00;;;2.30;99.90;;;;;;4972225;28;20047;-84
2022/01/31 03:27:52;;;;;;;16.20;8.67;;;2.30;99.90;;;;;;4972472;28;20105;-84
2022/01/31 03:30:23;;;;;;;18.20;8.43;;;2.30;99.90;;;;;;4971585;28;20051;-84
2022/01/31 03:32:49;;;;;;;16.53;8.33;;;2.30;99.90;;;;;;4972517;28;20126;-84
2022/01/31 03:35:15;;;;;;;16.80;8.77;;;2.30;99.90;;;;;;4972247;28;20137;-84
2022/01/31 03:37:41;;;;;;;19.13;8.97;;;2.30;99.90;;;;;;4970679;28;20107;-84
2022/01/31 03:40:08;;;;;;;23.40;9.57;;;2.20;99.90;;;;;;4971757;28;20499;-84
2022/01/31 03:42:36;;;;;;;17.40;8.80;;;2.30;99.90;;;;;;4971874;28;20038;-84
2022/01/31 03:45:02;;;;;;;20.73;10.40;;;2.30;99.90;;;;;;4972955;28;20039;-84
2022/01/31 03:47:28;;;;;;;20.77;9.73;;;2.30;99.90;;;;;;4972648;28;20047;-84
2022/01/31 03:49:54;;;;;;;20.53;9.90;;;2.20;99.90;;;;;;4972512;28;20109;-84
2022/01/31 03:52:19;;;;;;;22.93;9.53;;;2.50;99.90;;;;;;4971522;28;20047;-84
2022/01/31 03:54:46;;;;;;;19.97;9.40;;;2.40;99.90;;;;;;4971656;28;20514;-83
2022/01/31 03:57:11;;;;;;;20.83;9.70;;;2.40;99.90;;;;;;4973031;28;20069;-83
2022/01/31 03:59:37;;;;;;;21.70;10.37;;;2.20;99.90;;;;;;4976018;28;20559;-84
2022/01/31 04:02:06;;;;;;;20.23;10.00;;;2.50;99.90;;;;;;4975822;28;20034;-84
2022/01/31 04:04:32;;;;;;;19.87;9.40;;;2.60;99.90;;;;;;4974494;28;20055;-84
2022/01/31 04:06:57;;;;;;;19.30;10.17;;;2.60;99.90;;;;;;4975603;28;20055;-84
2022/01/31 04:09:24;;;;;;;20.40;9.33;;;2.70;99.90;;;;;;4988758;23;20047;-83
2022/01/31 04:11:50;;;;;;;19.50;9.60;;;2.60;99.90;;;;;;4993774;28;20050;-84
2022/01/31 04:14:15;;;;;;;19.47;10.17;;;2.80;99.90;;;;;;4994039;28;20046;-84
2022/01/31 04:16:41;;;;;;;21.73;9.47;;;2.90;99.90;;;;;;4994045;28;20047;-84
2022/01/31 04:19:06;;;;;;;21.20;9.83;;;2.90;99.90;;;;;;4993607;28;20046;-84
2022/01/31 04:21:32;;;;;;;21.73;9.37;;;4.60;99.90;;;;;;4993995;28;20133;-84
2022/01/31 04:23:58;;;;;;;22.63;10.33;;;3.10;99.90;;;;;;4994499;28;20047;-84
2022/01/31 04:26:31;;;;;;;24.87;11.27;;;3.10;99.90;;;;;;4993804;28;20121;-84
2022/01/31 04:29:05;;;;;;;21.33;10.85;;;3.20;99.90;;;;;;4994326;28;20046;-84
2022/01/31 04:31:51;;;;;;;26.20;10.18;;;3.30;99.90;;;;;;4994214;28;20050;-84
2022/01/31 04:34:17;;;;;;;24.40;10.07;;;3.30;99.90;;;;;;4994204;28;20046;-84
2022/01/31 04:36:43;;;;;;;32.33;11.33;;;3.30;99.90;;;;;;4996170;28;20049;-84
2022/01/31 04:39:15;;;;;;;21.77;9.13;;;3.40;99.90;;;;;;4994074;28;20054;-84
2022/01/31 04:41:41;;;;;;;29.97;9.50;;;3.60;99.90;;;;;;4993022;28;20451;-84
2022/01/31 04:44:08;;;;;;;28.40;9.30;;;3.70;99.90;;;;;;4994130;28;20081;-84
2022/01/31 04:46:33;;;;;;;24.47;8.67;;;3.80;99.90;;;;;;4993391;28;20057;-84
2022/01/31 04:48:59;;;;;;;26.83;8.00;;;3.90;99.90;;;;;;4994336;28;20047;-84
2022/01/31 04:51:25;;;;;;;20.90;7.07;;;3.90;99.90;;;;;;4995457;28;20139;-84
2022/01/31 04:53:50;;;;;;;21.93;6.27;;;4.10;99.90;;;;;;4993650;28;20042;-84
2022/01/31 04:56:16;;;;;;;18.63;5.10;;;4.10;99.90;;;;;;4993685;28;20042;-84
2022/01/31 04:58:44;;;;;;;23.70;5.10;;;4.20;99.90;;;;;;4993290;28;20934;-84
2022/01/31 05:01:11;;;;;;;19.53;5.10;;;4.20;99.90;;;;;;4992883;28;20051;-84
2022/01/31 05:03:52;;;;;;;19.70;4.00;;;4.30;99.90;;;;;;4992979;28;20514;-84
2022/01/31 05:06:21;;;;;;;14.40;3.10;;;4.10;99.90;;;;;;4992833;28;20043;-84
2022/01/31 05:08:50;;;;;;;12.87;2.40;;;4.20;99.90;;;;;;4990451;28;20054;-84
2022/01/31 05:11:17;;;;;;;14.47;3.03;;;4.10;99.90;;;;;;4993526;28;20046;-84
2022/01/31 05:13:43;;;;;;;14.80;3.23;;;4.10;99.90;;;;;;4993317;28;20050;-84
2022/01/31 05:16:08;;;;;;;16.80;3.40;;;4.10;99.90;;;;;;4992776;28;20061;-84
2022/01/31 05:18:34;;;;;;;19.97;3.10;;;4.20;99.90;;;;;;4993221;28;20407;-84
2022/01/31 05:21:00;;;;;;;15.83;3.43;;;4.30;99.90;;;;;;4993117;28;20058;-84
2022/01/31 05:23:25;;;;;;;20.37;3.43;;;4.30;99.90;;;;;;4991423;28;20395;-84
2022/01/31 05:25:51;;;;;;;22.27;3.30;;;4.40;99.90;;;;;;4993058;28;20057;-84
2022/01/31 05:28:16;;;;;;;18.70;3.10;;;4.40;99.90;;;;;;4993374;28;20049;-84
2022/01/31 05:30:42;;;;;;;23.97;4.10;;;4.50;99.90;;;;;;4992466;28;20487;-85
2022/01/31 05:33:08;;;;;;;15.67;2.63;;;4.50;99.90;;;;;;4994610;28;20050;-84
2022/01/31 05:35:34;;;;;;;17.70;3.17;;;4.50;99.90;;;;;;4992964;28;20112;-84
2022/01/31 05:37:59;;;;;;;18.37;3.80;;;4.50;99.90;;;;;;4992133;28;20077;-85
2022/01/31 05:40:25;;;;;;;19.53;3.70;;;4.50;99.90;;;;;;4992740;28;20085;-84
2022/01/31 05:42:50;;;;;;;21.40;3.53;;;4.50;99.90;;;;;;4992073;28;20129;-85
2022/01/31 05:45:16;;;;;;;17.30;2.90;;;4.50;99.90;;;;;;4993275;28;20479;-84
2022/01/31 05:47:42;;;;;;;17.40;3.97;;;4.60;99.90;;;;;;4992560;28;20038;-85
2022/01/31 05:50:08;;;;;;;18.03;3.30;;;4.60;99.90;;;;;;4992222;28;20042;-84
2022/01/31 05:52:34;;;;;;;14.07;3.17;;;4.60;99.90;;;;;;4992722;28;20038;-84
2022/01/31 05:55:00;;;;;;;20.33;3.47;;;4.60;99.90;;;;;;4993022;28;20054;-85
2022/01/31 05:57:35;;;;;;;14.07;3.13;;;4.60;99.90;;;;;;4992286;28;20461;-85
2022/01/31 06:00:08;;;;;;;14.47;2.60;;;4.80;99.90;;;;;;4992949;28;20430;-85
2022/01/31 06:03:01;;;;;;;11.43;1.90;;;4.50;99.90;;;;;;4992953;28;20081;-84
2022/01/31 06:05:27;;;;;;;10.30;1.73;;;4.20;99.90;;;;;;5000206;28;20509;-84
2022/01/31 06:07:53;;;;;;;6.97;1.30;;;4.20;99.90;;;;;;4992897;28;20043;-85
2022/01/31 06:10:18;;;;;;;7.93;1.87;;;2.80;99.90;;;;;;4992469;28;20053;-84
2022/01/31 06:12:45;;;;;;;7.97;1.40;;;4.00;99.90;;;;;;4991534;28;21023;-84
2022/01/31 06:15:11;;;;;;;10.03;1.60;;;3.90;99.90;;;;;;4992516;28;20046;-84
2022/01/31 06:17:36;;;;;;;5.53;1.47;;;3.80;99.90;;;;;;4993634;28;20085;-84
2022/01/31 06:20:02;;;;;;;6.30;1.33;;;3.80;99.90;;;;;;4991844;28;20052;-84
2022/01/31 06:22:28;;;;;;;11.60;1.83;;;3.70;99.90;;;;;;4993541;28;20157;-84
2022/01/31 06:24:53;;;;;;;9.10;1.77;;;3.70;99.90;;;;;;4993415;28;20074;-85
2022/01/31 06:27:19;;;;;;;7.93;1.67;;;3.70;99.90;;;;;;5028112;23;20020;-84
2022/01/31 06:29:46;;;;;;;5.60;1.40;;;3.70;99.90;;;;;;4995254;28;20468;-85
2022/01/31 06:32:12;;;;;;;10.00;1.93;;;3.70;99.90;;;;;;4994927;28;20076;-84
2022/01/31 06:34:38;;;;;;;6.80;1.70;;;3.70;99.90;;;;;;4995466;28;20054;-84
2022/01/31 06:37:04;;;;;;;9.37;2.00;;;3.60;99.90;;;;;;4995015;28;20068;-84
2022/01/31 06:39:30;;;;;;;10.40;2.20;;;3.60;99.90;;;;;;4998043;28;20105;-85
2022/01/31 06:41:57;;;;;;;10.60;2.47;;;3.70;99.90;;;;;;5002956;28;20129;-84
2022/01/31 06:44:22;;;;;;;10.57;2.33;;;3.70;99.90;;;;;;4996042;28;20049;-84
2022/01/31 06:46:48;;;;;;;11.30;2.50;;;3.70;99.90;;;;;;4994185;28;20046;-84
2022/01/31 06:49:14;;;;;;;13.07;2.53;;;3.70;99.90;;;;;;4995111;28;20038;-85
2022/01/31 06:51:39;;;;;;;10.93;2.70;;;3.80;99.90;;;;;;4994130;28;20394;-84
2022/01/31 06:54:06;;;;;;;10.90;2.63;;;3.70;99.90;;;;;;4994447;28;20077;-85
2022/01/31 06:56:35;;;;;;;10.83;2.50;;;3.80;99.90;;;;;;4994732;28;20038;-84
2022/01/31 06:59:02;;;;;;;14.80;3.03;;;3.80;99.90;;;;;;4995112;28;20069;-84
2022/01/31 07:01:28;;;;;;;32.50;17.77;;;4.00;99.90;;;;;;4994270;28;20141;-84
2022/01/31 07:03:54;;;;;;;47.13;26.47;;;3.90;99.90;;;;;;4995048;28;20121;-85
2022/01/31 07:06:21;;;;;;;31.70;14.60;;;3.90;99.90;;;;;;4995343;28;20046;-85
2022/01/31 07:08:49;;;;;;;18.43;7.90;;;3.90;99.90;;;;;;4994202;28;20050;-87
2022/01/31 07:11:20;;;;;;;17.07;7.33;;;4.00;99.90;;;;;;4995339;28;20478;-88
2022/01/31 07:13:48;;;;;;;14.47;5.30;;;3.80;99.90;;;;;;5015135;23;20613;-88
2022/01/31 07:17:05;;;;;;;20.93;11.17;;;4.70;99.90;;;;;;4995297;28;20058;-88
2022/01/31 07:19:37;;;;;;;22.43;9.03;;;4.20;99.90;;;;;;4994515;28;20100;-90
2022/01/31 07:22:10;;;;;;;18.07;4.53;;;5.10;99.90;;;;;;4994551;28;20074;-88
2022/01/31 07:27:06;;;;;;;16.93;4.67;;;3.90;99.90;;;;;;4991965;28;20080;-88
2022/01/31 07:29:41;;;;;;;20.40;4.47;;;4.10;99.90;;;;;;4992262;28;20114;-88
2022/01/31 07:32:12;;;;;;;18.00;2.80;;;4.00;99.90;;;;;;4993154;28;20046;-88
2022/01/31 07:34:49;;;;;;;15.67;2.97;;;4.50;99.90;;;;;;4995342;28;20034;-86
2022/01/31 07:37:33;;;;;;;14.13;2.70;;;4.90;99.90;;;;;;4988817;28;20098;-86
2022/01/31 07:43:06;;;;;;;10.43;2.40;;;4.20;99.90;;;;;;5007250;23;20062;-88
2022/01/31 07:45:35;;;;;;;11.83;2.47;;;5.30;99.90;;;;;;4998338;28;20045;-89
2022/01/31 07:48:01;;;;;;;9.60;2.00;;;3.90;99.90;;;;;;4998717;28;20124;-88
2022/01/31 07:50:37;;;;;;;11.43;2.27;;;4.10;99.90;;;;;;4997876;28;20141;-88
2022/01/31 07:53:04;;;;;;;10.30;1.90;;;4.90;99.90;;;;;;5005647;28;20026;-88
2022/01/31 07:55:54;;;;;;;8.53;2.00;;;5.10;99.90;;;;;;4994429;28;20501;-89
2022/01/31 08:02:02;;;;;;;11.53;1.87;;;3.20;99.90;;;;;;4987430;28;20054;-89
2022/01/31 08:04:30;;;;;;;7.90;1.60;;;4.20;99.90;;;;;;4997317;23;20406;-88
2022/01/31 08:07:02;;;;;;;8.97;1.73;;;5.00;99.90;;;;;;5029366;23;20050;-88
2022/01/31 08:09:47;;;;;;;12.10;2.33;;;4.30;99.90;;;;;;4975739;28;20078;-86
2022/01/31 08:12:13;;;;;;;9.23;1.80;;;4.50;99.90;;;;;;4977289;28;20062;-87
2022/01/31 08:14:39;;;;;;;7.97;2.03;;;3.90;99.90;;;;;;4976053;28;20047;-87
2022/01/31 08:17:07;;;;;;;14.60;5.67;;;2.60;99.90;;;;;;4976915;28;20177;-88
2022/01/31 08:19:48;;;;;;;23.27;8.87;;;5.00;99.90;;;;;;4975908;28;20049;-87
2022/01/31 08:22:23;;;;;;;18.83;11.27;;;4.00;99.90;;;;;;4976382;28;20608;-88
2022/01/31 08:25:39;;;;;;;13.80;4.77;;;4.00;99.90;;;;;;4985641;23;20043;-87
2022/01/31 08:28:11;;;;;;;15.77;3.60;;;3.60;99.90;;;;;;4981892;28;20056;-88
2022/01/31 08:30:53;;;;;;;14.50;4.10;;;4.00;99.90;;;;;;5007968;28;20117;-87
2022/01/31 08:36:27;;;;;;;15.97;3.70;;;4.20;99.90;;;;;;4971534;28;20057;-86
2022/01/31 08:39:13;;;;;;;13.10;3.90;;;4.00;99.90;;;;;;4997201;28;20037;-87
2022/01/31 08:41:43;;;;;;;16.40;5.20;;;4.10;99.90;;;;;;5015214;28;20050;-87
2022/01/31 08:44:11;;;;;;;15.23;3.90;;;4.20;99.90;;;;;;5014929;23;20061;-87
2022/01/31 08:46:40;;;;;;;14.50;3.60;;;5.60;99.90;;;;;;4973846;28;20482;-87
2022/01/31 08:49:08;;;;;;;17.60;3.10;;;4.30;99.90;;;;;;4975048;28;20053;-87
2022/01/31 08:51:39;;;;;;;17.50;3.20;;;3.40;99.90;;;;;;4974225;28;20053;-88
2022/01/31 08:54:13;;;;;;;19.20;5.93;;;4.50;99.90;;;;;;5058054;23;20346;-88
2022/01/31 08:57:45;;;;;;;12.90;2.57;;;5.30;99.90;;;;;;4987785;28;20054;-88
2022/01/31 09:00:12;;;;;;;12.23;2.67;;;3.80;99.90;;;;;;4982715;28;20074;-87
2022/01/31 09:03:04;;;;;;;10.63;2.50;;;4.80;99.90;;;;;;4985906;28;20096;-87
2022/01/31 09:05:49;;;;;;;13.87;2.67;;;4.80;99.90;;;;;;4990918;28;20045;-87
2022/01/31 09:08:30;;;;;;;12.63;2.43;;;4.70;99.90;;;;;;4993190;28;20038;-87
2022/01/31 09:11:06;;;;;;;14.03;2.33;;;5.50;99.90;;;;;;4975884;28;20050;-88
2022/01/31 09:13:50;;;;;;;13.87;2.50;;;4.70;99.90;;;;;;4976550;28;20050;-88
2022/01/31 09:16:23;;;;;;;15.68;2.90;;;5.20;99.90;;;;;;4997772;23;20061;-87
2022/01/31 09:18:52;;;;;;;14.83;2.33;;;4.90;99.90;;;;;;4974195;28;20050;-88
2022/01/31 09:21:21;;;;;;;11.63;2.53;;;6.20;99.90;;;;;;4973850;28;20061;-91
2022/01/31 09:23:52;;;;;;;13.37;2.20;;;6.20;99.90;;;;;;5005948;23;20055;-88
2022/01/31 09:26:23;;;;;;;11.33;2.10;;;6.30;99.90;;;;;;4996866;28;20051;-87
2022/01/31 09:28:50;;;;;;;12.70;2.30;;;5.00;99.90;;;;;;4995750;28;20042;-86
2022/01/31 09:31:25;;;;;;;11.73;2.43;;;5.00;99.90;;;;;;4995175;28;20125;-87
2022/01/31 09:34:06;;;;;;;14.20;2.67;;;7.00;99.90;;;;;;4993473;28;20046;-88
2022/01/31 09:36:32;;;;;;;11.60;2.10;;;6.20;99.90;;;;;;4992508;28;20054;-86
2022/01/31 09:38:58;;;;;;;8.87;2.00;;;5.20;99.90;;;;;;4993769;28;20238;-88
2022/01/31 09:41:26;;;;;;;9.77;2.23;;;5.20;99.90;;;;;;4993343;28;20558;-88
2022/01/31 09:44:09;;;;;;;10.33;2.10;;;5.20;99.90;;;;;;5004006;28;20506;-88
2022/01/31 09:47:19;;;;;;;8.60;1.70;;;5.20;99.90;;;;;;4993057;28;20526;-88
2022/01/31 09:49:53;;;;;;;10.00;2.00;;;4.70;99.90;;;;;;4978755;28;20050;-88
2022/01/31 09:52:27;;;;;;;9.83;2.00;;;5.30;99.90;;;;;;4982373;23;20043;-88
2022/01/31 09:54:59;;;;;;;11.57;2.10;;;5.30;99.90;;;;;;4987428;23;20065;-88
2022/01/31 09:57:34;;;;;;;11.30;1.90;;;5.50;99.90;;;;;;4992317;28;20054;-86
2022/01/31 10:00:06;;;;;;;11.03;1.73;;;5.80;99.90;;;;;;4993177;28;20038;-88
2022/01/31 10:02:38;;;;;;;8.53;2.00;;;4.80;99.90;;;;;;4992500;28;20039;-88
2022/01/31 10:05:42;;;;;;;10.80;1.90;;;6.20;99.90;;;;;;4988978;28;20046;-88
2022/01/31 10:08:30;;;;;;;8.57;1.80;;;7.00;99.90;;;;;;4992879;28;20125;-88
2022/01/31 10:11:01;;;;;;;12.40;2.30;;;5.60;99.90;;;;;;5013275;23;20065;-88
2022/01/31 10:16:26;;;;;;;8.27;1.70;;;5.50;99.90;;;;;;5010576;28;20053;-84
2022/01/31 10:19:07;;;;;;;10.15;2.00;;;5.40;99.90;;;;;;5006752;28;20042;-84
2022/01/31 10:21:55;;;;;;;11.40;2.00;;;6.20;99.90;;;;;;5006848;28;20061;-84
2022/01/31 10:24:29;;;;;;;8.40;1.70;;;5.90;99.90;;;;;;5011597;28;20456;-85
2022/01/31 10:27:17;;;;;;;9.33;1.67;;;6.60;99.90;;;;;;5012007;28;20046;-85
2022/01/31 10:29:54;;;;;;;6.93;1.53;;;5.80;99.90;;;;;;5009884;28;20053;-85
2022/01/31 10:32:29;;;;;;;9.90;1.80;;;4.90;99.90;;;;;;5011200;28;20038;-85
2022/01/31 10:35:18;;;;;;;11.37;1.80;;;5.60;99.90;;;;;;4997721;28;20050;-85
2022/01/31 10:37:49;;;;;;;11.07;1.90;;;5.70;99.90;;;;;;5011465;28;20080;-85
2022/01/31 10:43:36;;;;;;;12.20;2.00;;;7.90;99.90;;;;;;4991623;28;20137;-85
2022/01/31 10:46:20;;;;;;;7.53;1.93;;;5.60;99.90;;;;;;4991270;28;20151;-85
2022/01/31 10:52:41;;;;;;;9.03;1.80;;;6.00;99.90;;;;;;5043148;23;20058;-87
2022/01/31 10:57:32;;;;;;;11.23;2.10;;;6.30;99.90;;;;;;5044896;23;20128;-87
2022/01/31 11:00:01;;;;;;;9.93;1.93;;;6.20;99.90;;;;;;4994669;28;20490;-88
2022/01/31 11:02:30;;;;;;;8.93;1.80;;;7.10;99.90;;;;;;4995466;28;20046;-89
2022/01/31 11:05:01;;;;;;;11.50;2.00;;;7.60;99.90;;;;;;4995131;28;20141;-89
2022/01/31 11:07:53;;;;;;;11.03;2.20;;;6.60;99.90;;;;;;5020446;23;20050;-88
2022/01/31 11:10:28;;;;;;;8.87;1.57;;;7.10;99.90;;;;;;4985909;28;20127;-88
2022/01/31 11:12:54;;;;;;;11.33;2.07;;;7.90;99.90;;;;;;4998796;28;20078;-87
2022/01/31 11:15:23;;;;;;;11.57;1.90;;;7.80;99.90;;;;;;4998265;28;20073;-87
2022/01/31 11:17:59;;;;;;;10.63;1.83;;;6.40;99.90;;;;;;4998851;28;20046;-88
2022/01/31 11:20:37;;;;;;;10.50;2.43;;;6.10;99.90;;;;;;4998332;28;20065;-88
2022/01/31 11:23:03;;;;;;;17.43;2.53;;;7.10;99.90;;;;;;4999427;28;20457;-88
2022/01/31 11:25:31;;;;;;;10.67;1.87;;;6.20;99.90;;;;;;4998668;28;20128;-85
2022/01/31 11:28:16;;;;;;;10.40;2.17;;;6.30;99.90;;;;;;4998027;28;20081;-88
2022/01/31 11:30:42;;;;;;;10.40;1.73;;;6.30;99.90;;;;;;5016154;23;20152;-85
2022/01/31 11:33:10;;;;;;;11.90;1.93;;;6.30;99.90;;;;;;5026146;28;20496;-84
2022/01/31 11:35:35;;;;;;;12.17;1.70;;;6.30;99.90;;;;;;5014634;28;20037;-85
2022/01/31 11:38:02;;;;;;;10.17;1.90;;;6.30;99.90;;;;;;5005831;28;20042;-85
2022/01/31 11:40:28;;;;;;;14.90;2.23;;;6.30;99.90;;;;;;5009241;28;20041;-82
2022/01/31 11:42:55;;;;;;;11.70;1.90;;;6.40;99.90;;;;;;5006770;28;20052;-84
2022/01/31 11:45:20;;;;;;;9.53;1.97;;;6.50;99.90;;;;;;5003047;28;20049;-85
2022/01/31 11:47:49;;;;;;;8.90;1.70;;;6.50;99.90;;;;;;4998422;28;20052;-85
2022/01/31 11:50:15;;;;;;;10.40;2.30;;;6.60;99.90;;;;;;4998639;28;20054;-89
2022/01/31 11:53:01;;;;;;;9.53;2.37;;;7.80;99.90;;;;;;4998584;28;20049;-91
2022/01/31 11:55:35;;;;;;;13.27;2.10;;;6.70;99.90;;;;;;4998355;28;20464;-88
2022/01/31 11:58:01;;;;;;;10.40;1.80;;;6.90;99.90;;;;;;4998891;28;20042;-88
2022/01/31 12:00:38;;;;;;;7.97;1.73;;;7.20;99.90;;;;;;4999393;28;20100;-90
2022/01/31 12:03:15;;;;;;;10.03;1.70;;;6.90;99.90;;;;;;4998569;28;20136;-90
2022/01/31 12:05:49;;;;;;;9.90;1.70;;;6.70;99.90;;;;;;4998337;28;20045;-85
2022/01/31 12:08:35;;;;;;;6.60;2.08;;;6.10;99.90;;;;;;5001455;28;20054;-86
2022/01/31 12:11:09;;;;;;;8.30;1.60;;;6.80;99.90;;;;;;5003082;28;20093;-86
2022/01/31 12:13:51;;;;;;;12.07;1.67;;;6.90;99.90;;;;;;4998239;28;20049;-85
2022/01/31 12:16:37;;;;;;;10.90;2.03;;;7.00;99.90;;;;;;5016153;28;20049;-86
2022/01/31 12:19:30;;;;;;;11.90;1.90;;;7.00;99.90;;;;;;4998163;28;20038;-86
2022/01/31 12:22:02;;;;;;;12.77;2.50;;;7.00;99.90;;;;;;5015495;28;20048;-86
2022/01/31 12:24:39;;;;;;;11.20;1.73;;;7.00;99.90;;;;;;4997264;28;20096;-87
2022/01/31 12:27:10;;;;;;;12.43;1.80;;;7.10;99.90;;;;;;5015545;28;20125;-89
2022/01/31 12:29:45;;;;;;;9.60;1.90;;;7.20;99.90;;;;;;4998061;28;20041;-87
2022/01/31 12:32:18;;;;;;;11.07;2.20;;;7.20;99.90;;;;;;4998953;28;20049;-87
2022/01/31 12:34:59;;;;;;;13.25;2.38;;;8.20;99.90;;;;;;4998364;28;20926;-87
2022/01/31 12:37:59;;;;;;;12.23;1.90;;;7.00;99.90;;;;;;5014924;28;20061;-87
2022/01/31 12:40:29;;;;;;;12.37;2.30;;;7.20;99.90;;;;;;4997765;28;20065;-87
2022/01/31 12:45:37;;;;;;;9.23;2.30;;;7.70;99.90;;;;;;5022719;28;20057;-87
2022/01/31 12:48:22;;;;;;;13.43;1.90;;;8.90;99.90;;;;;;5017594;28;20464;-87
2022/01/31 12:50:53;;;;;;;16.33;2.47;;;8.50;99.90;;;;;;5015083;28;20080;-88
2022/01/31 12:53:27;;;;;;;12.70;2.10;;;7.60;99.90;;;;;;4996948;28;20057;-87
2022/01/31 12:56:02;;;;;;;10.00;2.20;;;7.40;99.90;;;;;;4997963;28;20052;-87
2022/01/31 12:58:32;;;;;;;13.17;2.07;;;7.50;99.90;;;;;;4996886;28;20073;-88
2022/01/31 13:02:01;;;;;;;13.17;2.43;;;8.50;99.90;;;;;;5014200;28;20116;-87
2022/01/31 13:04:48;;;;;;;11.67;2.30;;;7.60;99.90;;;;;;4937982;29;20075;-88
2022/01/31 13:07:15;;;;;;;12.30;2.60;;;7.30;99.90;;;;;;4947963;28;20099;-87
2022/01/31 13:09:43;;;;;;;14.40;3.10;;;7.50;99.90;;;;;;4997276;28;20049;-87
2022/01/31 13:12:17;;;;;;;10.47;2.07;;;7.20;99.90;;;;;;4997061;28;20049;-87
2022/01/31 13:14:52;;;;;;;13.77;2.58;;;8.20;99.90;;;;;;4996467;28;20375;-88
2022/01/31 13:17:25;;;;;;;12.87;2.23;;;7.50;99.90;;;;;;4996896;28;20042;-87
2022/01/31 13:20:02;;;;;;;15.38;2.55;;;7.90;99.90;;;;;;4996665;28;20425;-86
2022/01/31 13:22:40;;;;;;;14.73;2.60;;;9.70;99.90;;;;;;5005221;28;20057;-86
2022/01/31 13:25:21;;;;;;;12.77;2.17;;;8.50;99.90;;;;;;4997230;28;20049;-87
2022/01/31 13:27:49;;;;;;;15.13;2.47;;;7.40;99.90;;;;;;5013217;28;20041;-88
2022/01/31 13:30:24;;;;;;;11.80;2.40;;;7.30;99.90;;;;;;5013208;28;20482;-87
2022/01/31 13:32:57;;;;;;;14.30;2.73;;;8.60;99.90;;;;;;4994480;28;20097;-87
2022/01/31 13:35:31;;;;;;;12.97;2.43;;;7.20;99.90;;;;;;4993616;28;20125;-87
2022/01/31 13:38:07;;;;;;;17.47;2.83;;;7.30;99.90;;;;;;4977352;28;20046;-87